Kezdőlap
METAR-TAF:

METAR-TAF

Repülőterek :

Ambon, Indonézia

földrajzi szélesség: 03-42S, földrajzi hosszúság: 128-05E, magasság: 12 m

Jelenlegi meteorológiai megfigyelések

A jelentés 35 perccel ezelõtt készült, 07:00 UTC
Dél-délkeleti szél 7 kt, kelet-délkeleti és dél-délnyugati között változik
Hőmérséklet 27°C
Páratartalom 79%
Légköri nyomás 1011 hPa
Látótávolság 10 km, vagy több
Szórványos felhőzet 1800 lábon

METAR: WAPP 180700Z 15007KT 120V200 9999 SCT018 27/23 Q1011 NOSIG

Idő: 16:35 (07:35 UTC)

Előrejelzés

A jelentés 2 órával és 35 perccel ezelõtt készült, 05:00 UTC
Az előrejelzés 18-én 06 óra UTC és 19-én 06 óra UTC között érvényes
Dél-délkeleti szél 6 kt
Látótávolság: 9000 m
Szórványos felhőzet 1800 lábon
18-én 09 óra UTC és 18-én 11 óra UTC között ideiglenes
Látótávolság: 5000 m
Szakadozott felhőzet 1500 lábon
enyhe esõ

TAF: WAPP 180500Z 1806/1906 15006KT 9000 SCT018 TEMPO 1809/1811 5000 -RA BKN015

Meteorológiai megfigyelések és előrejelzések több, mint 4000 repülőtéren (METAR és TAF jelentéseket).

A térképen piros és sárga pontok jelzik az elérhető meteorológiai állomásokat.

Mozgassa az egeret a pont fölött, hogy megjelenjen az állomás neve.

Azután kattintson az időjárási megfigyelések és előrejelzések megtekintéséhez.

A térkép megváltoztatása: kattintson a fekete keresztel jelölt zöld gombra ráközelítéshez, a vonallal jelölt zöld gombra távolításhoz, vagy a zöld nyilakra a szomszédos térképek eléréséhez.


METAR-TAF: